createdAt,value
2022-09-01T00:00:58.083Z,88.78
2022-09-01T00:04:16.465Z,89.06
2022-09-01T00:05:20.798Z,88.99
2022-09-01T00:06:28.698Z,88.55
2022-09-01T00:11:58.535Z,89.18
2022-09-01T00:13:10.601Z,88.48
2022-09-01T00:14:38.541Z,88.63
2022-09-01T00:19:18.168Z,89.39
2022-09-01T00:21:01.532Z,89.14
2022-09-01T00:23:10.170Z,89.02
2022-09-01T00:24:19.618Z,88.70
2022-09-01T00:26:18.256Z,88.82
2022-09-01T00:30:33.653Z,89.52
2022-09-01T00:31:38.120Z,89.10
2022-09-01T00:33:32.538Z,89.21
2022-09-01T00:34:52.579Z,89.03
2022-09-01T00:35:56.643Z,89.17
2022-09-01T00:37:02.339Z,89.44
2022-09-01T00:41:03.541Z,89.11
2022-09-01T00:42:39.517Z,88.45
2022-09-01T00:43:45.626Z,89.07
2022-09-01T00:46:06.887Z,88.23
2022-09-01T00:47:41.816Z,88.61
2022-09-01T00:53:52.878Z,87.69
2022-09-01T00:55:00.467Z,87.89
2022-09-01T00:56:30.628Z,88.03
2022-09-01T00:57:59.388Z,87.88
2022-09-01T01:01:43.026Z,88.80
2022-09-01T01:02:48.071Z,88.98
2022-09-01T01:05:31.070Z,88.33
2022-09-01T01:06:36.029Z,88.80
2022-09-01T01:07:45.949Z,88.88
2022-09-01T01:08:58.427Z,88.62
2022-09-01T01:10:02.586Z,88.55
2022-09-01T01:11:18.182Z,88.62
2022-09-01T01:12:22.291Z,88.44
2022-09-01T01:14:01.367Z,88.72
2022-09-01T01:15:07.640Z,88.53
2022-09-01T01:16:17.973Z,88.43
2022-09-01T01:18:13.004Z,88.27
2022-09-01T01:23:23.677Z,89.22
2022-09-01T01:24:31.907Z,89.15
2022-09-01T01:25:40.467Z,89.39
2022-09-01T01:26:43.847Z,89.15
2022-09-01T01:27:49.517Z,89.30
2022-09-01T01:28:53.635Z,88.98
2022-09-01T01:30:01.706Z,89.41
2022-09-01T01:31:12.356Z,89.31
2022-09-01T01:32:17.126Z,89.12
2022-09-01T01:33:23.386Z,89.02
2022-09-01T01:34:55.549Z,89.07
2022-09-01T01:36:00.128Z,89.02
2022-09-01T01:37:06.939Z,89.34
2022-09-01T01:38:11.628Z,89.32
2022-09-01T01:39:18.886Z,89.66
2022-09-01T01:40:24.250Z,90.34
2022-09-01T01:41:30.196Z,90.38
2022-09-01T01:42:33.812Z,90.29
2022-09-01T01:43:38.317Z,90.07
2022-09-01T01:44:43.137Z,90.12
2022-09-01T01:45:49.337Z,90.35
2022-09-01T01:46:55.017Z,90.68
2022-09-01T01:48:01.468Z,91.01
2022-09-01T01:49:07.053Z,91.27
2022-09-01T01:50:12.912Z,90.97
2022-09-01T01:51:21.397Z,91.15
2022-09-01T01:52:26.931Z,91.55
2022-09-01T01:53:32.300Z,91.36
2022-09-01T01:54:35.977Z,91.99
2022-09-01T01:55:44.100Z,91.77
2022-09-01T01:56:47.930Z,92.11
2022-09-01T01:57:53.970Z,92.25
2022-09-01T01:58:59.106Z,92.33
2022-09-01T02:00:04.349Z,92.60
2022-09-01T02:01:17.413Z,92.56
2022-09-01T02:02:23.280Z,93.01
2022-09-01T02:03:31.128Z,92.49
2022-09-01T02:04:34.836Z,92.88
2022-09-01T02:05:45.926Z,92.55
2022-09-01T02:06:50.718Z,91.91
2022-09-01T02:07:56.930Z,91.84
2022-09-01T02:09:04.347Z,92.15
2022-09-01T02:11:29.768Z,91.78
2022-09-01T02:12:33.188Z,91.59
2022-09-01T02:13:37.668Z,91.73
2022-09-01T02:14:40.997Z,91.42
2022-09-01T02:15:47.366Z,91.63
2022-09-01T02:16:50.863Z,91.67
2022-09-01T02:18:00.935Z,91.29
2022-09-01T02:19:10.773Z,91.32
2022-09-01T02:20:16.790Z,90.75
2022-09-01T02:21:21.821Z,91.13
2022-09-01T02:22:26.007Z,91.16
2022-09-01T02:23:30.188Z,90.79
2022-09-01T02:24:34.597Z,90.69
2022-09-01T02:25:53.910Z,90.47
2022-09-01T02:27:05.931Z,90.76
2022-09-01T02:28:16.184Z,90.78
2022-09-01T02:29:24.208Z,89.81
2022-09-01T02:30:27.979Z,89.88
2022-09-01T02:31:35.687Z,89.73
2022-09-01T02:32:40.316Z,89.52
2022-09-01T02:33:47.488Z,90.07
2022-09-01T02:34:53.912Z,90.03
2022-09-01T02:36:01.029Z,89.20
2022-09-01T02:37:04.617Z,89.56
2022-09-01T02:38:09.366Z,89.76
2022-09-01T02:39:13.156Z,89.71
2022-09-01T02:40:21.381Z,89.97
2022-09-01T02:41:25.453Z,89.21
2022-09-01T02:42:32.208Z,88.63
2022-09-01T02:43:36.230Z,89.00
2022-09-01T02:44:48.226Z,88.78
2022-09-01T02:46:00.288Z,89.22
2022-09-01T02:47:06.470Z,88.93
2022-09-01T02:48:10.636Z,88.55
2022-09-01T02:49:20.065Z,88.42
2022-09-01T02:50:25.322Z,88.36
2022-09-01T02:51:30.090Z,88.96
2022-09-01T02:52:38.707Z,88.93
2022-09-01T02:53:43.968Z,88.57
2022-09-01T02:54:51.289Z,89.12
2022-09-01T02:55:59.739Z,88.76
2022-09-01T02:57:05.598Z,87.97
2022-09-01T02:58:16.777Z,88.70
2022-09-01T02:59:23.109Z,88.89
2022-09-01T03:00:31.632Z,88.59
2022-09-01T03:01:36.743Z,88.95
2022-09-01T03:02:41.270Z,88.76
2022-09-01T03:03:45.891Z,88.93
2022-09-01T03:04:55.832Z,88.69
2022-09-01T03:06:00.113Z,88.79
2022-09-01T03:07:05.669Z,89.31
2022-09-01T03:08:11.015Z,88.96
2022-09-01T03:09:18.276Z,88.60
2022-09-01T03:10:22.248Z,89.56
2022-09-01T03:11:30.211Z,88.86
2022-09-01T03:12:33.776Z,89.20
2022-09-01T03:13:45.581Z,88.87
2022-09-01T03:14:49.259Z,89.81
2022-09-01T03:15:54.046Z,89.36
2022-09-01T03:16:57.999Z,89.69
2022-09-01T03:18:02.979Z,89.52
2022-09-01T03:19:09.346Z,89.56
2022-09-01T03:20:14.122Z,89.55
2022-09-01T03:21:17.887Z,90.12
2022-09-01T03:22:23.026Z,89.74
2022-09-01T03:23:27.920Z,90.28
2022-09-01T03:24:32.455Z,90.61
2022-09-01T03:25:36.597Z,90.23
2022-09-01T03:26:41.148Z,90.54
2022-09-01T03:27:44.398Z,90.28
2022-09-01T03:28:50.708Z,90.47
2022-09-01T03:29:54.107Z,90.57
2022-09-01T03:30:59.354Z,90.66
2022-09-01T03:32:02.663Z,90.63
2022-09-01T03:33:07.667Z,90.60
2022-09-01T03:34:12.946Z,90.90
2022-09-01T03:35:23.336Z,90.93
2022-09-01T03:36:28.639Z,91.42
2022-09-01T03:37:31.796Z,91.71
2022-09-01T03:38:36.096Z,91.26
2022-09-01T03:39:41.576Z,90.97
2022-09-01T03:40:45.881Z,91.11
2022-09-01T03:41:48.977Z,91.44
2022-09-01T03:42:54.114Z,91.43
2022-09-01T03:43:59.521Z,91.66
2022-09-01T03:45:09.525Z,91.83
2022-09-01T03:46:18.766Z,91.38
2022-09-01T03:47:23.063Z,91.58
2022-09-01T03:48:29.389Z,91.13
2022-09-01T03:49:33.578Z,91.44
2022-09-01T03:50:39.838Z,91.43
2022-09-01T03:51:45.387Z,91.19
2022-09-01T03:52:49.639Z,91.71
2022-09-01T03:53:57.201Z,91.40
2022-09-01T03:55:00.819Z,91.50
2022-09-01T03:56:06.556Z,91.26
2022-09-01T03:57:11.175Z,91.17
2022-09-01T03:58:21.362Z,91.21
2022-09-01T03:59:28.776Z,91.33
2022-09-01T04:00:32.527Z,90.81
2022-09-01T04:01:43.983Z,91.22
2022-09-01T04:02:50.599Z,91.01
2022-09-01T04:04:02.238Z,91.16
2022-09-01T04:05:10.043Z,91.53
2022-09-01T04:06:15.315Z,91.75
2022-09-01T04:07:19.086Z,91.70
2022-09-01T04:08:32.596Z,91.81
2022-09-01T04:09:36.876Z,91.78
2022-09-01T04:10:52.602Z,91.95
2022-09-01T04:11:58.967Z,92.10
2022-09-01T04:13:02.629Z,91.99
2022-09-01T04:14:07.246Z,91.90
2022-09-01T04:15:17.426Z,92.35
2022-09-01T04:16:42.701Z,92.17
2022-09-01T04:18:09.669Z,92.32
2022-09-01T04:19:20.851Z,92.29
2022-09-01T04:20:26.286Z,92.38
2022-09-01T04:21:30.753Z,92.31
2022-09-01T04:22:36.230Z,92.04
2022-09-01T04:23:39.411Z,92.15
2022-09-01T04:24:46.288Z,91.88
2022-09-01T04:25:50.805Z,92.10
2022-09-01T04:26:56.548Z,92.62
2022-09-01T04:27:59.757Z,92.64
2022-09-01T04:29:03.997Z,92.57
2022-09-01T04:30:10.955Z,92.39
2022-09-01T04:31:19.728Z,92.63
2022-09-01T04:32:26.059Z,92.49
2022-09-01T04:33:40.164Z,92.84
2022-09-01T04:34:44.457Z,93.05
2022-09-01T04:35:55.198Z,92.79
2022-09-01T04:36:59.138Z,92.44
2022-09-01T04:38:03.969Z,93.05
2022-09-01T04:39:09.418Z,93.17
2022-09-01T04:40:17.918Z,93.39
2022-09-01T04:41:23.488Z,93.42
2022-09-01T04:42:30.561Z,93.41
2022-09-01T04:43:35.380Z,93.26
2022-09-01T04:44:41.013Z,93.66
2022-09-01T04:45:47.343Z,93.05
2022-09-01T04:46:52.284Z,92.87
2022-09-01T04:47:56.690Z,92.93
2022-09-01T04:49:00.167Z,92.78
2022-09-01T04:50:13.243Z,93.43
2022-09-01T04:51:19.657Z,93.13
2022-09-01T04:52:32.288Z,93.31
2022-09-01T04:53:38.608Z,92.85
2022-09-01T04:54:45.437Z,92.97
2022-09-01T04:55:49.842Z,93.17
2022-09-01T04:56:57.259Z,93.61
2022-09-01T04:58:08.353Z,93.30
2022-09-01T04:59:15.940Z,93.12
2022-09-01T05:00:24.038Z,92.76
2022-09-01T05:01:29.203Z,93.24
2022-09-01T05:02:34.222Z,93.25
2022-09-01T05:03:38.768Z,93.28
2022-09-01T05:05:04.052Z,92.70
2022-09-01T05:06:15.129Z,92.59
2022-09-01T05:07:24.513Z,92.65
2022-09-01T05:08:28.710Z,92.18
2022-09-01T05:09:40.138Z,92.08
2022-09-01T05:11:07.983Z,91.78
2022-09-01T05:12:22.304Z,91.41
2022-09-01T05:13:30.170Z,91.44
2022-09-01T05:14:34.636Z,91.81
2022-09-01T05:15:39.183Z,91.37
2022-09-01T05:16:46.534Z,91.52
2022-09-01T05:17:56.827Z,90.94
2022-09-01T05:19:03.257Z,90.42
2022-09-01T05:20:12.603Z,89.96
2022-09-01T05:21:22.489Z,90.33
2022-09-01T05:22:27.259Z,90.12
2022-09-01T05:23:44.550Z,89.42
2022-09-01T05:24:48.317Z,89.27
2022-09-01T05:25:55.031Z,89.28
2022-09-01T05:26:59.828Z,89.40
2022-09-01T05:28:05.430Z,88.99
2022-09-01T05:29:13.647Z,88.52
2022-09-01T05:30:19.636Z,88.63
2022-09-01T05:31:25.169Z,89.01
2022-09-01T05:32:29.606Z,88.63
2022-09-01T05:33:35.057Z,88.96
2022-09-01T05:34:40.185Z,88.35
2022-09-01T05:35:52.407Z,88.28
2022-09-01T05:36:59.715Z,87.78
2022-09-01T05:38:05.028Z,87.81
2022-09-01T05:39:11.411Z,87.38
2022-09-01T05:40:16.666Z,87.68
2022-09-01T05:41:24.153Z,87.90
2022-09-01T05:42:28.844Z,87.68
2022-09-01T05:43:34.840Z,87.42
2022-09-01T05:44:42.693Z,87.10
2022-09-01T05:46:05.633Z,86.79
2022-09-01T05:47:14.762Z,86.56
2022-09-01T05:48:25.934Z,86.41
2022-09-01T05:49:33.437Z,85.90
2022-09-01T05:50:43.077Z,85.74
2022-09-01T05:51:50.795Z,85.05
2022-09-01T05:52:57.704Z,84.65
2022-09-01T05:54:02.317Z,84.35
2022-09-01T05:55:09.584Z,84.11
2022-09-01T05:56:18.009Z,83.57
2022-09-01T05:57:34.197Z,83.42
2022-09-01T06:00:13.442Z,83.40
2022-09-01T06:01:22.319Z,83.04
2022-09-01T06:02:28.974Z,83.29
2022-09-01T06:03:38.467Z,83.42
2022-09-01T06:04:45.160Z,83.17
2022-09-01T06:05:54.341Z,83.28
2022-09-01T06:07:06.387Z,83.08
2022-09-01T06:08:15.248Z,82.55
2022-09-01T06:09:21.897Z,82.26
2022-09-01T06:10:27.450Z,81.82
2022-09-01T06:11:33.335Z,81.91
2022-09-01T06:12:37.705Z,81.49
2022-09-01T06:13:42.540Z,81.25
2022-09-01T06:14:47.934Z,81.02
2022-09-01T06:15:54.264Z,80.89
2022-09-01T06:16:57.703Z,80.53
2022-09-01T06:18:02.335Z,80.10
2022-09-01T06:19:07.836Z,80.54
2022-09-01T06:20:18.445Z,80.56
2022-09-01T06:21:22.745Z,80.61
2022-09-01T06:22:28.441Z,80.77
2022-09-01T06:23:34.046Z,80.18
2022-09-01T06:24:40.097Z,80.11
2022-09-01T06:25:45.353Z,79.91
2022-09-01T06:26:50.794Z,80.46
2022-09-01T06:27:54.421Z,80.18
2022-09-01T06:29:00.147Z,80.33
2022-09-01T06:30:05.062Z,79.87
2022-09-01T06:31:15.382Z,79.79
2022-09-01T06:32:19.634Z,79.49
2022-09-01T06:33:25.354Z,79.79
2022-09-01T06:34:30.272Z,80.15
2022-09-01T06:35:35.298Z,80.38
2022-09-01T06:36:43.665Z,79.84
2022-09-01T06:37:48.773Z,79.81
2022-09-01T06:39:19.992Z,79.56
2022-09-01T06:40:26.816Z,79.49
2022-09-01T06:41:31.735Z,79.46
2022-09-01T06:42:35.462Z,79.27
2022-09-01T06:43:41.417Z,78.54
2022-09-01T06:44:46.216Z,78.55
2022-09-01T06:45:54.616Z,78.30
2022-09-01T06:47:00.951Z,77.58
2022-09-01T06:48:05.924Z,77.57
2022-09-01T06:49:12.246Z,77.08
2022-09-01T06:51:15.045Z,77.05
2022-09-01T06:51:44.092Z,77.20
2022-09-01T06:54:14.681Z,76.44
2022-09-01T06:55:18.687Z,76.06
2022-09-01T06:56:24.484Z,75.15
2022-09-01T06:58:59.257Z,74.54
2022-09-01T07:00:08.048Z,74.05
2022-09-01T07:01:16.527Z,73.96
2022-09-01T07:02:20.161Z,73.37
2022-09-01T07:03:53.634Z,73.06
2022-09-01T07:10:23.326Z,70.58
2022-09-01T07:13:05.510Z,68.90
2022-09-01T07:14:26.393Z,68.63
2022-09-01T07:16:31.995Z,69.34
2022-09-01T07:17:23.268Z,67.73
2022-09-01T07:18:22.625Z,66.99
2022-09-01T07:21:36.287Z,65.99
2022-09-01T07:22:36.116Z,65.87
2022-09-01T07:24:05.870Z,66.25
2022-09-01T07:25:13.529Z,64.79
2022-09-01T07:26:46.660Z,63.81
2022-09-01T07:27:51.095Z,63.43
2022-09-01T07:29:04.069Z,62.03
2022-09-01T07:30:12.244Z,62.37
2022-09-01T07:32:47.241Z,61.60
2022-09-01T07:35:22.671Z,60.90
2022-09-01T07:36:28.100Z,59.46
2022-09-01T07:44:24.664Z,57.91
2022-09-01T07:46:00.831Z,57.12
2022-09-01T07:47:20.179Z,57.22
2022-09-01T07:48:36.650Z,56.08
2022-09-01T07:50:12.213Z,55.67
2022-09-01T07:51:37.158Z,55.45
2022-09-01T07:52:44.356Z,55.16
2022-09-01T07:53:48.645Z,54.55
2022-09-01T07:54:53.175Z,54.61
2022-09-01T07:55:57.734Z,54.65
2022-09-01T07:57:02.416Z,54.26
2022-09-01T07:58:08.801Z,54.36
2022-09-01T07:59:15.071Z,53.97
2022-09-01T08:00:32.022Z,53.74
2022-09-01T08:01:43.392Z,53.42
2022-09-01T08:02:47.391Z,53.30
2022-09-01T08:03:55.227Z,53.50
2022-09-01T08:04:59.198Z,53.23
2022-09-01T08:06:06.847Z,53.03
2022-09-01T08:07:15.566Z,53.08
2022-09-01T08:08:27.768Z,52.90
2022-09-01T08:09:37.527Z,53.29
2022-09-01T08:10:48.751Z,53.08
2022-09-01T08:12:01.636Z,52.43
2022-09-01T08:13:08.111Z,52.17
2022-09-01T08:14:11.467Z,52.42
2022-09-01T08:16:51.938Z,52.82
2022-09-01T08:17:57.120Z,52.78
2022-09-01T08:19:02.643Z,52.84
2022-09-01T08:20:20.405Z,51.74
2022-09-01T08:21:28.054Z,50.70
2022-09-01T08:22:40.036Z,50.39
2022-09-01T08:23:55.327Z,50.67
2022-09-01T08:25:00.258Z,49.14
2022-09-01T08:26:06.473Z,49.61
2022-09-01T08:27:10.894Z,49.59
2022-09-01T08:28:16.302Z,49.58
2022-09-01T08:29:21.993Z,50.12
2022-09-01T08:30:25.302Z,50.47
2022-09-01T08:31:31.253Z,50.92
2022-09-01T08:32:37.024Z,51.42
2022-09-01T08:33:42.072Z,51.26
2022-09-01T08:34:45.794Z,50.04
2022-09-01T08:35:51.146Z,49.95
2022-09-01T08:36:55.206Z,49.84
2022-09-01T08:38:00.826Z,49.76
2022-09-01T08:39:06.914Z,49.96
2022-09-01T08:40:14.843Z,49.17
2022-09-01T08:41:20.366Z,49.18
2022-09-01T08:42:46.322Z,48.52
2022-09-01T08:43:57.833Z,48.94
2022-09-01T08:45:06.245Z,48.95
2022-09-01T08:46:13.892Z,49.20
2022-09-01T08:47:28.704Z,49.20
2022-09-01T08:49:23.599Z,49.36
2022-09-01T08:50:06.005Z,49.35
2022-09-01T08:51:37.854Z,48.86
2022-09-01T08:52:43.313Z,48.98
2022-09-01T08:53:50.768Z,49.08
2022-09-01T08:55:00.110Z,48.73
2022-09-01T08:56:04.097Z,48.96
2022-09-01T08:57:11.783Z,48.95
2022-09-01T08:58:34.703Z,49.16
2022-09-01T08:59:58.633Z,48.82
2022-09-01T09:01:20.234Z,49.18
2022-09-01T09:02:36.568Z,48.64
2022-09-01T09:03:45.711Z,48.49
2022-09-01T09:04:56.895Z,47.74
2022-09-01T09:06:14.869Z,46.61
2022-09-01T09:07:28.946Z,46.53
2022-09-01T09:08:54.526Z,45.95
2022-09-01T09:10:06.126Z,45.05
2022-09-01T09:11:18.452Z,45.09
2022-09-01T09:12:49.068Z,45.06
2022-09-01T09:14:02.943Z,46.08
2022-09-01T09:15:16.735Z,46.63
2022-09-01T09:16:25.034Z,46.39
2022-09-01T09:17:31.385Z,46.57
2022-09-01T09:18:40.704Z,46.63
2022-09-01T09:19:45.199Z,46.63
2022-09-01T09:20:49.714Z,46.81
2022-09-01T09:21:54.954Z,46.77
2022-09-01T09:22:59.824Z,46.45
2022-09-01T09:24:09.657Z,45.55
2022-09-01T09:25:19.431Z,45.40
2022-09-01T09:26:22.963Z,45.42
2022-09-01T09:27:29.733Z,45.62
2022-09-01T09:28:32.805Z,45.05
2022-09-01T09:29:37.071Z,44.63
2022-09-01T09:30:40.198Z,44.74
2022-09-01T09:31:50.614Z,44.79
2022-09-01T09:34:32.894Z,45.75
2022-09-01T09:35:38.754Z,45.81
2022-09-01T09:36:42.925Z,45.89
2022-09-01T09:37:46.944Z,45.28
2022-09-01T09:39:06.800Z,43.75
2022-09-01T09:40:15.451Z,44.71
2022-09-01T09:41:26.858Z,44.49
2022-09-01T09:42:34.905Z,43.88
2022-09-01T09:43:47.581Z,43.50
2022-09-01T09:44:53.109Z,43.46
2022-09-01T09:46:25.545Z,40.56
2022-09-01T09:47:44.144Z,41.78
2022-09-01T09:48:48.508Z,43.47
2022-09-01T09:50:13.999Z,40.41
2022-09-01T09:51:19.746Z,42.96
2022-09-01T09:52:24.774Z,42.91
2022-09-01T09:53:29.849Z,43.14
2022-09-01T09:54:35.287Z,43.15
2022-09-01T09:55:56.067Z,42.62
2022-09-01T09:57:13.605Z,42.94
2022-09-01T09:58:16.804Z,42.83
2022-09-01T09:59:53.650Z,40.99
2022-09-01T10:01:03.971Z,40.84
2022-09-01T10:02:27.946Z,40.94
2022-09-01T10:03:45.270Z,41.89
2022-09-01T10:04:51.445Z,42.90
2022-09-01T10:05:59.477Z,43.06
2022-09-01T10:07:25.274Z,42.90
2022-09-01T10:08:45.479Z,43.42
2022-09-01T10:09:49.934Z,43.02
2022-09-01T10:10:58.162Z,42.36
2022-09-01T10:12:03.644Z,41.69
2022-09-01T10:13:12.406Z,41.81
2022-09-01T10:14:47.686Z,42.45
2022-09-01T10:15:43.434Z,42.58
2022-09-01T10:16:49.108Z,42.77
2022-09-01T10:19:21.633Z,41.38
2022-09-01T10:20:28.283Z,40.81
2022-09-01T10:21:34.790Z,40.34
2022-09-01T10:22:40.355Z,40.04
2022-09-01T10:23:45.573Z,40.17
2022-09-01T10:24:50.278Z,40.85
2022-09-01T10:25:59.342Z,40.54
2022-09-01T10:27:11.301Z,40.16
2022-09-01T10:28:24.616Z,40.34
2022-09-01T10:29:35.161Z,39.87
2022-09-01T10:30:47.741Z,39.60
2022-09-01T10:32:03.414Z,39.75
2022-09-01T10:33:20.844Z,39.69
2022-09-01T10:34:25.862Z,40.06
2022-09-01T10:35:32.715Z,39.08
2022-09-01T10:36:37.811Z,38.95
2022-09-01T10:37:41.458Z,38.82
2022-09-01T10:38:53.668Z,38.73
2022-09-01T10:40:36.382Z,35.96
2022-09-01T10:41:59.791Z,39.50
2022-09-01T10:43:41.254Z,37.57
2022-09-01T10:44:59.065Z,38.26
2022-09-01T10:46:15.269Z,38.88
2022-09-01T10:47:30.288Z,39.48
2022-09-01T10:48:48.186Z,40.05
2022-09-01T10:50:07.593Z,40.35
2022-09-01T10:51:50.501Z,39.52
2022-09-01T10:53:07.349Z,40.43
2022-09-01T10:54:11.291Z,40.29
2022-09-01T10:55:24.754Z,39.92
2022-09-01T10:56:42.939Z,39.65
2022-09-01T10:57:55.852Z,39.23
2022-09-01T11:01:18.925Z,39.29
2022-09-01T11:02:25.908Z,38.91
2022-09-01T11:03:54.244Z,38.92
2022-09-01T11:05:18.952Z,38.03
2022-09-01T11:07:11.996Z,38.09
2022-09-01T11:08:40.954Z,38.05
2022-09-01T11:09:48.677Z,38.34
2022-09-01T11:10:55.663Z,37.12
2022-09-01T11:12:30.014Z,36.62
2022-09-01T11:13:42.327Z,37.82
2022-09-01T11:14:51.971Z,37.73
2022-09-01T11:16:00.400Z,37.81
2022-09-01T11:17:17.891Z,35.97
2022-09-01T11:18:27.755Z,36.49
2022-09-01T11:19:41.287Z,36.05
2022-09-01T11:20:46.874Z,36.61
2022-09-01T11:22:05.244Z,36.87
2022-09-01T11:23:14.907Z,36.82
2022-09-01T11:24:54.435Z,33.87
2022-09-01T11:26:19.774Z,36.26
2022-09-01T11:27:58.060Z,36.06
2022-09-01T11:29:04.554Z,36.94
2022-09-01T11:30:10.454Z,36.26
2022-09-01T11:31:25.001Z,36.02
2022-09-01T11:32:33.138Z,36.45
2022-09-01T11:33:46.599Z,35.05
2022-09-01T11:34:51.411Z,35.60
2022-09-01T11:36:00.952Z,34.60
2022-09-01T11:37:15.436Z,34.50
2022-09-01T11:38:19.348Z,35.64
2022-09-01T11:39:33.436Z,36.04
2022-09-01T11:40:37.250Z,36.92
2022-09-01T11:41:55.751Z,36.86
2022-09-01T11:43:06.198Z,37.14
2022-09-01T11:44:23.812Z,37.35
2022-09-01T11:45:29.154Z,38.00
2022-09-01T11:46:34.919Z,38.35
2022-09-01T11:47:40.946Z,37.95
2022-09-01T11:48:47.644Z,38.20
2022-09-01T11:49:59.149Z,37.97
2022-09-01T11:51:04.484Z,37.96
2022-09-01T11:52:08.604Z,37.66
2022-09-01T11:53:14.784Z,36.87
2022-09-01T11:54:19.036Z,37.34
2022-09-01T11:55:31.372Z,35.51
2022-09-01T11:56:34.841Z,35.83
2022-09-01T11:57:40.395Z,35.59
2022-09-01T11:58:44.745Z,36.04
2022-09-01T11:59:49.534Z,35.98
2022-09-01T12:00:53.655Z,36.39
2022-09-01T12:01:57.903Z,36.63
2022-09-01T12:03:02.246Z,36.74
2022-09-01T12:04:22.632Z,37.32
2022-09-01T12:05:30.995Z,38.51
2022-09-01T12:06:35.141Z,38.48
2022-09-01T12:07:44.704Z,38.66
2022-09-01T12:08:54.780Z,38.67
2022-09-01T12:09:59.165Z,37.94
2022-09-01T12:11:05.704Z,37.16
2022-09-01T12:12:32.654Z,36.37
2022-09-01T12:13:37.484Z,36.98
2022-09-01T12:15:04.242Z,36.19
2022-09-01T12:16:24.870Z,36.47
2022-09-01T12:17:29.334Z,36.76
2022-09-01T12:18:35.734Z,36.48
2022-09-01T12:19:39.633Z,36.55
2022-09-01T12:20:43.949Z,36.42
2022-09-01T12:21:57.853Z,34.26
2022-09-01T12:23:02.614Z,35.14
2022-09-01T12:24:15.964Z,34.24
2022-09-01T12:25:23.107Z,34.78
2022-09-01T12:26:30.515Z,34.22
2022-09-01T12:27:36.845Z,34.70
2022-09-01T12:28:41.922Z,34.36
2022-09-01T12:29:46.400Z,34.90
2022-09-01T12:30:50.190Z,34.56
2022-09-01T12:31:56.288Z,34.21
2022-09-01T12:34:40.391Z,31.72
2022-09-01T12:35:44.085Z,34.26
2022-09-01T12:37:04.213Z,33.31
2022-09-01T12:38:30.272Z,32.73
2022-09-01T12:39:36.814Z,34.50
2022-09-01T12:40:41.027Z,34.24
2022-09-01T12:41:45.635Z,34.19
2022-09-01T12:42:51.940Z,33.84
2022-09-01T12:43:56.257Z,34.04
2022-09-01T12:45:02.586Z,34.04
2022-09-01T12:46:07.415Z,33.80
2022-09-01T12:47:51.864Z,31.35
2022-09-01T12:48:55.036Z,33.73
2022-09-01T12:49:59.304Z,33.55
2022-09-01T12:51:05.387Z,34.07
2022-09-01T12:52:26.341Z,35.52
2022-09-01T12:53:36.706Z,35.51
2022-09-01T12:54:40.544Z,34.80
2022-09-01T12:55:57.453Z,33.22
2022-09-01T12:57:01.623Z,34.15
2022-09-01T12:58:05.883Z,32.84
2022-09-01T12:59:15.838Z,32.94
2022-09-01T13:00:24.604Z,33.03
2022-09-01T13:01:30.926Z,32.96
2022-09-01T13:02:38.852Z,33.01
2022-09-01T13:03:43.134Z,33.68
2022-09-01T13:04:46.212Z,33.52
2022-09-01T13:05:53.217Z,32.65
2022-09-01T13:07:01.464Z,33.08
2022-09-01T13:08:08.674Z,33.19
2022-09-01T13:09:12.784Z,32.86
2022-09-01T13:10:16.119Z,32.91
2022-09-01T13:11:20.756Z,32.24
2022-09-01T13:12:23.812Z,32.34
2022-09-01T13:13:28.653Z,32.61
2022-09-01T13:14:31.982Z,32.18
2022-09-01T13:15:37.572Z,32.62
2022-09-01T13:16:42.082Z,32.10
2022-09-01T13:17:47.919Z,32.25
2022-09-01T13:20:16.353Z,33.69
2022-09-01T13:21:19.512Z,33.13
2022-09-01T13:22:23.574Z,32.95
2022-09-01T13:23:27.693Z,32.42
2022-09-01T13:24:32.097Z,32.16
2022-09-01T13:25:35.838Z,31.96
2022-09-01T13:26:40.010Z,31.87
2022-09-01T13:27:44.429Z,31.79
2022-09-01T13:28:48.730Z,31.94
2022-09-01T13:29:51.872Z,31.86
2022-09-01T13:32:24.309Z,31.69
2022-09-01T13:34:08.799Z,31.16
2022-09-01T13:34:55.506Z,31.94
2022-09-01T13:35:58.789Z,31.62
2022-09-01T13:37:02.913Z,31.90
2022-09-01T13:38:05.875Z,32.02
2022-09-01T13:39:10.165Z,32.48
2022-09-01T13:40:16.004Z,32.33
2022-09-01T13:41:20.287Z,32.27
2022-09-01T13:42:26.994Z,31.97
2022-09-01T13:43:33.000Z,32.07
2022-09-01T13:44:36.028Z,31.89
2022-09-01T13:45:45.043Z,31.85
2022-09-01T13:48:16.491Z,31.84
2022-09-01T13:52:13.409Z,31.68
2022-09-01T13:53:18.357Z,31.19
2022-09-01T13:54:21.751Z,31.68
2022-09-01T13:55:27.953Z,31.23
2022-09-01T13:56:31.197Z,31.63
2022-09-01T13:57:36.289Z,31.33
2022-09-01T13:58:41.313Z,30.95
2022-09-01T13:59:44.643Z,31.02
2022-09-01T14:00:50.887Z,31.21
2022-09-01T14:01:54.065Z,31.58
2022-09-01T14:03:01.442Z,30.80
2022-09-01T14:04:06.577Z,31.22
2022-09-01T14:05:12.864Z,30.91
2022-09-01T14:06:16.072Z,31.58
2022-09-01T14:07:20.574Z,31.67
2022-09-01T14:08:25.209Z,31.44
2022-09-01T14:09:28.281Z,31.72
2022-09-01T14:10:33.234Z,31.45
2022-09-01T14:11:36.696Z,31.01
2022-09-01T14:12:41.812Z,31.18
2022-09-01T14:13:46.015Z,31.17
2022-09-01T14:16:15.371Z,31.42
2022-09-01T14:17:19.093Z,31.39
2022-09-01T14:18:23.804Z,31.72
2022-09-01T14:19:26.892Z,31.75
2022-09-01T14:20:36.926Z,31.55
2022-09-01T14:21:40.536Z,31.25
2022-09-01T14:22:45.476Z,30.81
2022-09-01T14:23:51.665Z,30.99
2022-09-01T14:24:54.903Z,31.02
2022-09-01T14:25:59.301Z,31.00
2022-09-01T14:27:02.644Z,30.86
2022-09-01T14:28:07.054Z,31.00
2022-09-01T14:29:10.155Z,31.09
2022-09-01T14:30:16.678Z,31.14
2022-09-01T14:31:21.149Z,30.68
2022-09-01T14:32:27.159Z,30.89
2022-09-01T14:33:32.051Z,30.90
2022-09-01T14:34:35.422Z,31.16
2022-09-01T14:35:42.005Z,30.87
2022-09-01T14:36:45.944Z,30.77
2022-09-01T14:37:50.122Z,30.75
2022-09-01T14:38:55.124Z,30.95
2022-09-01T14:39:58.485Z,31.10
2022-09-01T14:41:03.292Z,30.86
2022-09-01T14:42:12.994Z,30.85
2022-09-01T14:43:18.126Z,31.32
2022-09-01T14:44:21.125Z,31.45
2022-09-01T14:45:26.932Z,31.71
2022-09-01T14:46:30.848Z,32.01
2022-09-01T14:47:35.140Z,32.20
2022-09-01T14:48:39.863Z,32.06
2022-09-01T14:49:43.196Z,32.44
2022-09-01T14:50:50.184Z,31.99
2022-09-01T14:53:17.460Z,32.53
2022-09-01T14:54:21.552Z,31.96
2022-09-01T14:55:27.058Z,32.14
2022-09-01T14:56:31.236Z,31.99
2022-09-01T14:57:37.525Z,31.87
2022-09-01T14:58:43.932Z,31.72
2022-09-01T14:59:47.038Z,32.04
2022-09-01T15:00:51.293Z,32.12
2022-09-01T15:01:54.965Z,31.66
2022-09-01T15:02:59.897Z,31.61
2022-09-01T15:04:03.422Z,31.84
2022-09-01T15:05:09.097Z,32.16
2022-09-01T15:06:15.208Z,32.50
2022-09-01T15:07:18.449Z,32.47
2022-09-01T15:08:23.901Z,32.40
2022-09-01T15:09:27.129Z,32.51
2022-09-01T15:10:32.525Z,32.50
2022-09-01T15:11:35.906Z,32.84
2022-09-01T15:12:49.932Z,33.14
2022-09-01T15:13:54.213Z,32.68
2022-09-01T15:14:57.353Z,33.05
2022-09-01T15:16:01.896Z,33.14
2022-09-01T15:17:05.732Z,32.63
2022-09-01T15:18:11.083Z,32.58
2022-09-01T15:19:15.620Z,32.26
2022-09-01T15:20:37.403Z,32.58
2022-09-01T15:21:45.303Z,32.46
2022-09-01T15:22:50.101Z,32.01
2022-09-01T15:23:55.557Z,31.90
2022-09-01T15:24:58.680Z,31.76
2022-09-01T15:26:02.894Z,31.68
2022-09-01T15:27:07.072Z,31.55
2022-09-01T15:28:11.415Z,31.85
2022-09-01T15:29:15.395Z,31.89
2022-09-01T15:30:21.852Z,32.30
2022-09-01T15:31:32.899Z,32.18
2022-09-01T15:32:36.285Z,32.80
2022-09-01T15:33:40.651Z,32.63
2022-09-01T15:34:43.711Z,33.04
2022-09-01T15:35:48.480Z,33.07
2022-09-01T15:36:52.961Z,33.60
2022-09-01T15:37:57.962Z,33.84
2022-09-01T15:39:01.210Z,34.22
2022-09-01T15:40:06.826Z,34.48
2022-09-01T15:41:11.303Z,34.72
2022-09-01T15:43:25.494Z,35.56
2022-09-01T15:44:28.623Z,35.51
2022-09-01T15:45:34.327Z,36.07
2022-09-01T15:46:39.262Z,36.10
2022-09-01T15:47:45.953Z,36.38
2022-09-01T15:48:50.710Z,36.86
2022-09-01T15:49:54.937Z,37.11
2022-09-01T15:51:17.872Z,37.24
2022-09-01T15:52:22.750Z,37.50
2022-09-01T15:53:27.072Z,38.07
2022-09-01T15:54:30.824Z,38.35
2022-09-01T15:55:42.343Z,38.28
2022-09-01T15:56:46.921Z,37.97
2022-09-01T15:57:55.152Z,37.42
2022-09-01T15:59:01.860Z,37.19
2022-09-01T16:00:07.762Z,37.03
2022-09-01T16:01:15.279Z,36.58
2022-09-01T16:02:21.643Z,36.12